sensor_id;sensor_type;location;lat;lon;timestamp;pressure;altitude;pressure_sealevel;temperature;humidity
58785;BME280;44557;51.862;19.378;2022-09-12T00:00:29;99029.52;;;11.62;78.00
58785;BME280;44557;51.862;19.378;2022-09-12T00:01:52;99028.86;;;11.67;77.62
58785;BME280;44557;51.862;19.378;2022-09-12T00:02:54;99032.25;;;11.67;77.37
58785;BME280;44557;51.862;19.378;2022-09-12T00:03:59;99030.79;;;11.62;77.73
58785;BME280;44557;51.862;19.378;2022-09-12T00:05:03;99029.19;;;11.67;77.92
58785;BME280;44557;51.862;19.378;2022-09-12T00:06:15;99030.23;;;11.65;77.42
58785;BME280;44557;51.862;19.378;2022-09-12T00:07:17;99032.79;;;11.63;77.60
58785;BME280;44557;51.862;19.378;2022-09-12T00:08:18;99033.34;;;11.64;77.46
58785;BME280;44557;51.862;19.378;2022-09-12T00:09:20;99032.02;;;11.56;77.90
58785;BME280;44557;51.862;19.378;2022-09-12T00:10:22;99033.02;;;11.60;77.91
58785;BME280;44557;51.862;19.378;2022-09-12T00:11:24;99029.73;;;11.64;77.58
58785;BME280;44557;51.862;19.378;2022-09-12T00:12:26;99031.40;;;11.64;77.85
58785;BME280;44557;51.862;19.378;2022-09-12T00:13:28;99030.79;;;11.62;77.53
58785;BME280;44557;51.862;19.378;2022-09-12T00:14:30;99033.58;;;11.63;77.56
58785;BME280;44557;51.862;19.378;2022-09-12T00:15:32;99031.52;;;11.60;77.46
58785;BME280;44557;51.862;19.378;2022-09-12T00:16:38;99030.52;;;11.54;77.88
58785;BME280;44557;51.862;19.378;2022-09-12T00:17:40;99032.70;;;11.53;77.91
58785;BME280;44557;51.862;19.378;2022-09-12T00:18:42;99033.13;;;11.61;78.24
58785;BME280;44557;51.862;19.378;2022-09-12T00:19:46;99032.18;;;11.57;77.86
58785;BME280;44557;51.862;19.378;2022-09-12T00:20:47;99030.69;;;11.58;77.55
58785;BME280;44557;51.862;19.378;2022-09-12T00:21:49;99032.48;;;11.56;77.89
58785;BME280;44557;51.862;19.378;2022-09-12T00:22:50;99031.21;;;11.49;77.98
58785;BME280;44557;51.862;19.378;2022-09-12T00:23:52;99029.58;;;11.50;78.22
58785;BME280;44557;51.862;19.378;2022-09-12T00:24:54;99029.77;;;11.49;78.04
58785;BME280;44557;51.862;19.378;2022-09-12T00:25:55;99030.38;;;11.54;78.20
58785;BME280;44557;51.862;19.378;2022-09-12T00:26:57;99033.51;;;11.46;78.09
58785;BME280;44557;51.862;19.378;2022-09-12T00:27:58;99034.05;;;11.46;78.24
58785;BME280;44557;51.862;19.378;2022-09-12T00:29:00;99032.94;;;11.45;78.44
58785;BME280;44557;51.862;19.378;2022-09-12T00:30:02;99033.75;;;11.46;78.22
58785;BME280;44557;51.862;19.378;2022-09-12T00:31:06;99032.42;;;11.47;78.25
58785;BME280;44557;51.862;19.378;2022-09-12T00:32:09;99036.85;;;11.51;78.19
58785;BME280;44557;51.862;19.378;2022-09-12T00:33:11;99036.14;;;11.54;78.00
58785;BME280;44557;51.862;19.378;2022-09-12T00:34:13;99036.41;;;11.49;78.41
58785;BME280;44557;51.862;19.378;2022-09-12T00:35:14;99033.77;;;11.43;78.22
58785;BME280;44557;51.862;19.378;2022-09-12T00:36:19;99032.36;;;11.41;78.58
58785;BME280;44557;51.862;19.378;2022-09-12T00:37:21;99035.46;;;11.39;78.52
58785;BME280;44557;51.862;19.378;2022-09-12T00:38:23;99033.40;;;11.38;78.37
58785;BME280;44557;51.862;19.378;2022-09-12T00:39:24;99031.75;;;11.35;78.26
58785;BME280;44557;51.862;19.378;2022-09-12T00:40:26;99029.38;;;11.41;79.17
58785;BME280;44557;51.862;19.378;2022-09-12T00:41:34;99033.73;;;11.38;78.81
58785;BME280;44557;51.862;19.378;2022-09-12T00:42:36;99035.63;;;11.35;78.67
58785;BME280;44557;51.862;19.378;2022-09-12T00:43:43;99031.48;;;11.34;78.70
58785;BME280;44557;51.862;19.378;2022-09-12T00:44:50;99027.20;;;11.32;78.88
58785;BME280;44557;51.862;19.378;2022-09-12T00:45:52;99029.83;;;11.41;78.69
58785;BME280;44557;51.862;19.378;2022-09-12T00:48:20;99032.55;;;11.32;78.91
58785;BME280;44557;51.862;19.378;2022-09-12T00:49:28;99032.40;;;11.25;78.59
58785;BME280;44557;51.862;19.378;2022-09-12T00:50:32;99032.27;;;11.22;79.00
58785;BME280;44557;51.862;19.378;2022-09-12T00:51:35;99034.89;;;11.28;78.84
58785;BME280;44557;51.862;19.378;2022-09-12T00:52:42;99033.45;;;11.30;79.07
58785;BME280;44557;51.862;19.378;2022-09-12T00:53:47;99035.38;;;11.35;78.94
58785;BME280;44557;51.862;19.378;2022-09-12T00:55:54;99037.15;;;11.33;78.97
58785;BME280;44557;51.862;19.378;2022-09-12T00:56:23;99033.20;;;11.29;79.37
58785;BME280;44557;51.862;19.378;2022-09-12T00:57:36;99032.46;;;11.25;78.91
58785;BME280;44557;51.862;19.378;2022-09-12T00:58:42;99033.23;;;11.21;79.23
58785;BME280;44557;51.862;19.378;2022-09-12T00:59:49;99033.61;;;11.23;79.22
58785;BME280;44557;51.862;19.378;2022-09-12T01:00:52;99033.75;;;11.23;79.14
58785;BME280;44557;51.862;19.378;2022-09-12T01:01:54;99034.67;;;11.25;79.26
58785;BME280;44557;51.862;19.378;2022-09-12T01:03:03;99035.23;;;11.26;79.46
58785;BME280;44557;51.862;19.378;2022-09-12T01:04:06;99036.16;;;11.18;79.69
58785;BME280;44557;51.862;19.378;2022-09-12T01:05:09;99033.05;;;11.19;79.55
58785;BME280;44557;51.862;19.378;2022-09-12T01:06:35;99029.95;;;11.22;79.12
58785;BME280;44557;51.862;19.378;2022-09-12T01:07:39;99033.73;;;11.22;79.62
58785;BME280;44557;51.862;19.378;2022-09-12T01:08:42;99031.10;;;11.24;79.48
58785;BME280;44557;51.862;19.378;2022-09-12T01:09:44;99033.66;;;11.22;79.29
58785;BME280;44557;51.862;19.378;2022-09-12T01:10:47;99032.15;;;11.28;79.55
58785;BME280;44557;51.862;19.378;2022-09-12T01:11:50;99029.63;;;11.25;79.48
58785;BME280;44557;51.862;19.378;2022-09-12T01:12:53;99034.77;;;11.26;79.57
58785;BME280;44557;51.862;19.378;2022-09-12T01:13:54;99033.27;;;11.26;79.61
58785;BME280;44557;51.862;19.378;2022-09-12T01:14:57;99034.92;;;11.25;79.49
58785;BME280;44557;51.862;19.378;2022-09-12T01:16:02;99034.02;;;11.27;79.69
58785;BME280;44557;51.862;19.378;2022-09-12T01:17:03;99034.13;;;11.29;79.86
58785;BME280;44557;51.862;19.378;2022-09-12T01:18:39;99033.16;;;11.31;79.24
58785;BME280;44557;51.862;19.378;2022-09-12T01:21:27;99029.90;;;11.13;79.86
58785;BME280;44557;51.862;19.378;2022-09-12T01:25:52;99032.60;;;11.20;79.79
58785;BME280;44557;51.862;19.378;2022-09-12T01:27:16;99032.67;;;11.17;79.81
58785;BME280;44557;51.862;19.378;2022-09-12T01:29:57;99033.04;;;11.09;80.55
58785;BME280;44557;51.862;19.378;2022-09-12T01:32:36;99030.77;;;11.16;80.42
58785;BME280;44557;51.862;19.378;2022-09-12T01:35:01;99032.11;;;11.13;80.62
58785;BME280;44557;51.862;19.378;2022-09-12T01:38:47;99032.36;;;11.04;80.63
58785;BME280;44557;51.862;19.378;2022-09-12T01:40:14;99024.17;;;11.04;81.08
58785;BME280;44557;51.862;19.378;2022-09-12T01:41:41;99026.61;;;11.03;80.91
58785;BME280;44557;51.862;19.378;2022-09-12T01:45:45;99032.97;;;11.03;81.05
58785;BME280;44557;51.862;19.378;2022-09-12T01:46:57;99031.75;;;11.01;81.43
58785;BME280;44557;51.862;19.378;2022-09-12T01:49:19;99032.59;;;11.07;81.59
58785;BME280;44557;51.862;19.378;2022-09-12T01:50:54;99038.28;;;11.08;80.95
58785;BME280;44557;51.862;19.378;2022-09-12T01:52:10;99034.79;;;11.07;81.34
58785;BME280;44557;51.862;19.378;2022-09-12T01:53:19;99032.65;;;11.06;81.18
58785;BME280;44557;51.862;19.378;2022-09-12T01:54:52;99038.73;;;11.04;81.35
58785;BME280;44557;51.862;19.378;2022-09-12T01:57:09;99035.60;;;11.04;81.37
58785;BME280;44557;51.862;19.378;2022-09-12T01:58:22;99041.98;;;11.02;81.24
58785;BME280;44557;51.862;19.378;2022-09-12T01:59:34;99042.70;;;11.05;81.67
58785;BME280;44557;51.862;19.378;2022-09-12T02:01:03;99037.77;;;11.05;81.60
58785;BME280;44557;51.862;19.378;2022-09-12T02:02:10;99041.34;;;11.04;81.47
58785;BME280;44557;51.862;19.378;2022-09-12T02:03:17;99038.36;;;10.98;81.48
58785;BME280;44557;51.862;19.378;2022-09-12T02:04:24;99040.88;;;11.04;81.87
58785;BME280;44557;51.862;19.378;2022-09-12T02:05:34;99038.94;;;10.96;81.90
58785;BME280;44557;51.862;19.378;2022-09-12T02:07:14;99034.21;;;10.96;82.42
58785;BME280;44557;51.862;19.378;2022-09-12T02:08:25;99039.65;;;10.96;82.43
58785;BME280;44557;51.862;19.378;2022-09-12T02:11:06;99039.12;;;10.90;81.82
58785;BME280;44557;51.862;19.378;2022-09-12T02:12:10;99040.48;;;10.85;82.11
58785;BME280;44557;51.862;19.378;2022-09-12T02:13:21;99035.21;;;10.82;82.25
58785;BME280;44557;51.862;19.378;2022-09-12T02:14:32;99038.14;;;10.89;82.61
58785;BME280;44557;51.862;19.378;2022-09-12T02:15:49;99039.90;;;10.84;82.31
58785;BME280;44557;51.862;19.378;2022-09-12T02:17:04;99041.52;;;10.79;82.65
58785;BME280;44557;51.862;19.378;2022-09-12T02:18:11;99040.67;;;10.83;82.34
58785;BME280;44557;51.862;19.378;2022-09-12T02:19:21;99037.98;;;10.83;82.17
58785;BME280;44557;51.862;19.378;2022-09-12T02:20:33;99039.45;;;10.79;82.68
58785;BME280;44557;51.862;19.378;2022-09-12T02:21:39;99044.77;;;10.87;82.90
58785;BME280;44557;51.862;19.378;2022-09-12T02:22:44;99044.64;;;10.88;82.90
58785;BME280;44557;51.862;19.378;2022-09-12T02:23:52;99045.92;;;10.91;82.53
58785;BME280;44557;51.862;19.378;2022-09-12T02:24:59;99045.30;;;10.92;82.67
58785;BME280;44557;51.862;19.378;2022-09-12T02:26:10;99043.20;;;10.87;82.35
58785;BME280;44557;51.862;19.378;2022-09-12T02:27:17;99037.06;;;10.90;82.77
58785;BME280;44557;51.862;19.378;2022-09-12T02:28:25;99044.75;;;10.85;82.57
58785;BME280;44557;51.862;19.378;2022-09-12T02:29:28;99043.88;;;10.86;82.59
58785;BME280;44557;51.862;19.378;2022-09-12T02:30:36;99038.81;;;10.91;82.49
58785;BME280;44557;51.862;19.378;2022-09-12T02:31:47;99039.60;;;10.84;82.35
58785;BME280;44557;51.862;19.378;2022-09-12T02:34:07;99036.83;;;10.87;82.78
58785;BME280;44557;51.862;19.378;2022-09-12T02:35:30;99041.10;;;10.84;83.09
58785;BME280;44557;51.862;19.378;2022-09-12T02:38:16;99039.21;;;10.85;82.80
58785;BME280;44557;51.862;19.378;2022-09-12T02:39:20;99037.54;;;10.84;82.89
58785;BME280;44557;51.862;19.378;2022-09-12T02:40:22;99042.25;;;10.77;82.90
58785;BME280;44557;51.862;19.378;2022-09-12T02:41:25;99039.58;;;10.77;83.22
58785;BME280;44557;51.862;19.378;2022-09-12T02:42:27;99040.27;;;10.80;83.28
58785;BME280;44557;51.862;19.378;2022-09-12T02:43:29;99040.61;;;10.84;83.08
58785;BME280;44557;51.862;19.378;2022-09-12T02:44:32;99043.27;;;10.83;83.00
58785;BME280;44557;51.862;19.378;2022-09-12T02:45:34;99041.40;;;10.87;83.18
58785;BME280;44557;51.862;19.378;2022-09-12T02:46:43;99042.44;;;10.79;83.25
58785;BME280;44557;51.862;19.378;2022-09-12T02:48:48;99047.20;;;10.76;83.13
58785;BME280;44557;51.862;19.378;2022-09-12T02:49:50;99049.23;;;10.70;83.26
58785;BME280;44557;51.862;19.378;2022-09-12T02:50:53;99045.27;;;10.69;83.17
58785;BME280;44557;51.862;19.378;2022-09-12T02:51:55;99049.48;;;10.74;83.14
58785;BME280;44557;51.862;19.378;2022-09-12T02:52:57;99049.14;;;10.79;82.92
58785;BME280;44557;51.862;19.378;2022-09-12T02:54:05;99050.85;;;10.72;83.37
58785;BME280;44557;51.862;19.378;2022-09-12T02:55:08;99047.39;;;10.72;83.70
58785;BME280;44557;51.862;19.378;2022-09-12T02:56:17;99047.40;;;10.79;83.62
58785;BME280;44557;51.862;19.378;2022-09-12T02:57:20;99049.75;;;10.75;83.58
58785;BME280;44557;51.862;19.378;2022-09-12T02:58:26;99051.00;;;10.72;83.49
58785;BME280;44557;51.862;19.378;2022-09-12T02:59:29;99046.41;;;10.74;83.35
58785;BME280;44557;51.862;19.378;2022-09-12T03:00:36;99048.56;;;10.75;83.47
58785;BME280;44557;51.862;19.378;2022-09-12T03:03:11;99045.50;;;10.81;84.42
58785;BME280;44557;51.862;19.378;2022-09-12T03:05:31;99047.46;;;10.66;83.83
58785;BME280;44557;51.862;19.378;2022-09-12T03:09:18;99053.23;;;10.64;83.79
58785;BME280;44557;51.862;19.378;2022-09-12T03:13:00;99057.77;;;10.65;83.95
58785;BME280;44557;51.862;19.378;2022-09-12T03:15:42;99054.98;;;10.58;84.11
58785;BME280;44557;51.862;19.378;2022-09-12T03:16:52;99059.02;;;10.57;84.09
58785;BME280;44557;51.862;19.378;2022-09-12T03:20:08;99056.45;;;10.60;84.20
58785;BME280;44557;51.862;19.378;2022-09-12T03:21:32;99057.67;;;10.59;84.30
58785;BME280;44557;51.862;19.378;2022-09-12T03:22:52;99059.44;;;10.60;84.02
58785;BME280;44557;51.862;19.378;2022-09-12T03:24:30;99062.89;;;10.57;83.91
58785;BME280;44557;51.862;19.378;2022-09-12T03:25:50;99059.70;;;10.58;83.93
58785;BME280;44557;51.862;19.378;2022-09-12T03:27:05;99063.78;;;10.61;84.10
58785;BME280;44557;51.862;19.378;2022-09-12T03:28:13;99064.36;;;10.56;84.33
58785;BME280;44557;51.862;19.378;2022-09-12T03:29:17;99062.71;;;10.53;84.23
58785;BME280;44557;51.862;19.378;2022-09-12T03:30:19;99062.98;;;10.52;84.22
58785;BME280;44557;51.862;19.378;2022-09-12T03:31:21;99066.19;;;10.53;84.34
58785;BME280;44557;51.862;19.378;2022-09-12T03:32:49;99065.56;;;10.57;84.38
58785;BME280;44557;51.862;19.378;2022-09-12T03:33:51;99067.50;;;10.53;84.67
58785;BME280;44557;51.862;19.378;2022-09-12T03:34:53;99068.29;;;10.55;84.78
58785;BME280;44557;51.862;19.378;2022-09-12T03:35:55;99065.84;;;10.55;84.54
58785;BME280;44557;51.862;19.378;2022-09-12T03:36:56;99069.60;;;10.58;84.90
58785;BME280;44557;51.862;19.378;2022-09-12T03:37:58;99069.84;;;10.52;84.58
58785;BME280;44557;51.862;19.378;2022-09-12T03:38:59;99071.02;;;10.58;84.12
58785;BME280;44557;51.862;19.378;2022-09-12T03:40:05;99072.98;;;10.57;84.09
58785;BME280;44557;51.862;19.378;2022-09-12T03:41:07;99074.24;;;10.54;84.28
58785;BME280;44557;51.862;19.378;2022-09-12T03:42:09;99072.66;;;10.57;84.69
58785;BME280;44557;51.862;19.378;2022-09-12T03:43:11;99077.27;;;10.56;84.73
58785;BME280;44557;51.862;19.378;2022-09-12T03:44:12;99076.70;;;10.56;84.77
58785;BME280;44557;51.862;19.378;2022-09-12T03:45:14;99080.20;;;10.54;84.45
58785;BME280;44557;51.862;19.378;2022-09-12T03:46:16;99084.48;;;10.58;84.46
58785;BME280;44557;51.862;19.378;2022-09-12T03:47:18;99084.95;;;10.55;84.34
58785;BME280;44557;51.862;19.378;2022-09-12T03:48:20;99082.60;;;10.52;84.33
58785;BME280;44557;51.862;19.378;2022-09-12T03:49:21;99083.84;;;10.54;84.42
58785;BME280;44557;51.862;19.378;2022-09-12T03:50:23;99085.53;;;10.59;84.47
58785;BME280;44557;51.862;19.378;2022-09-12T03:51:25;99085.91;;;10.61;84.77
58785;BME280;44557;51.862;19.378;2022-09-12T03:52:26;99084.23;;;10.60;84.68
58785;BME280;44557;51.862;19.378;2022-09-12T03:53:28;99084.45;;;10.59;84.30
58785;BME280;44557;51.862;19.378;2022-09-12T03:54:30;99086.11;;;10.57;84.66
58785;BME280;44557;51.862;19.378;2022-09-12T03:55:31;99092.11;;;10.52;84.96
58785;BME280;44557;51.862;19.378;2022-09-12T03:56:33;99091.38;;;10.54;85.02
58785;BME280;44557;51.862;19.378;2022-09-12T03:57:35;99094.83;;;10.57;84.79
58785;BME280;44557;51.862;19.378;2022-09-12T03:58:37;99091.30;;;10.62;84.87
58785;BME280;44557;51.862;19.378;2022-09-12T03:59:38;99094.28;;;10.62;84.69
58785;BME280;44557;51.862;19.378;2022-09-12T04:00:40;99091.62;;;10.60;84.80
58785;BME280;44557;51.862;19.378;2022-09-12T04:01:43;99094.90;;;10.62;85.03
58785;BME280;44557;51.862;19.378;2022-09-12T04:02:44;99091.90;;;10.53;85.02
58785;BME280;44557;51.862;19.378;2022-09-12T04:03:49;99098.25;;;10.52;85.27
58785;BME280;44557;51.862;19.378;2022-09-12T04:04:51;99096.75;;;10.52;85.27
58785;BME280;44557;51.862;19.378;2022-09-12T04:05:56;99095.33;;;10.52;85.47
58785;BME280;44557;51.862;19.378;2022-09-12T04:06:58;99094.52;;;10.60;84.95
58785;BME280;44557;51.862;19.378;2022-09-12T04:07:59;99093.29;;;10.58;84.86
58785;BME280;44557;51.862;19.378;2022-09-12T04:09:01;99094.09;;;10.53;84.95
58785;BME280;44557;51.862;19.378;2022-09-12T04:10:02;99095.45;;;10.53;85.28
58785;BME280;44557;51.862;19.378;2022-09-12T04:11:09;99099.20;;;10.55;85.04
58785;BME280;44557;51.862;19.378;2022-09-12T04:12:12;99094.81;;;10.53;85.44
58785;BME280;44557;51.862;19.378;2022-09-12T04:13:14;99094.16;;;10.61;85.29
58785;BME280;44557;51.862;19.378;2022-09-12T04:14:16;99097.70;;;10.64;85.20
58785;BME280;44557;51.862;19.378;2022-09-12T04:15:17;99097.83;;;10.60;85.00
58785;BME280;44557;51.862;19.378;2022-09-12T04:16:19;99098.73;;;10.58;85.67
58785;BME280;44557;51.862;19.378;2022-09-12T04:17:21;99096.55;;;10.56;85.57
58785;BME280;44557;51.862;19.378;2022-09-12T04:18:23;99095.90;;;10.58;85.22
58785;BME280;44557;51.862;19.378;2022-09-12T04:19:25;99100.80;;;10.62;85.20
58785;BME280;44557;51.862;19.378;2022-09-12T04:20:27;99103.98;;;10.66;85.17
58785;BME280;44557;51.862;19.378;2022-09-12T04:21:29;99102.67;;;10.73;85.36
58785;BME280;44557;51.862;19.378;2022-09-12T04:22:31;99102.91;;;10.70;84.89
58785;BME280;44557;51.862;19.378;2022-09-12T04:23:34;99103.58;;;10.69;84.81
58785;BME280;44557;51.862;19.378;2022-09-12T04:24:35;99100.27;;;10.66;84.89
58785;BME280;44557;51.862;19.378;2022-09-12T04:25:37;99096.21;;;10.70;85.25
58785;BME280;44557;51.862;19.378;2022-09-12T04:26:38;99093.73;;;10.68;84.92
58785;BME280;44557;51.862;19.378;2022-09-12T04:27:40;99105.36;;;10.65;84.96
58785;BME280;44557;51.862;19.378;2022-09-12T04:28:42;99098.27;;;10.65;84.96
58785;BME280;44557;51.862;19.378;2022-09-12T04:29:44;99099.50;;;10.69;85.16
58785;BME280;44557;51.862;19.378;2022-09-12T04:30:46;99106.06;;;10.73;85.10
58785;BME280;44557;51.862;19.378;2022-09-12T04:31:47;99101.01;;;10.69;84.72
58785;BME280;44557;51.862;19.378;2022-09-12T04:32:49;99102.35;;;10.67;85.34
58785;BME280;44557;51.862;19.378;2022-09-12T04:33:59;99102.84;;;10.70;84.93
58785;BME280;44557;51.862;19.378;2022-09-12T04:35:01;99103.90;;;10.69;84.77
58785;BME280;44557;51.862;19.378;2022-09-12T04:36:08;99100.77;;;10.69;84.92
58785;BME280;44557;51.862;19.378;2022-09-12T04:37:10;99098.89;;;10.67;85.08
58785;BME280;44557;51.862;19.378;2022-09-12T04:38:12;99105.55;;;10.69;84.99
58785;BME280;44557;51.862;19.378;2022-09-12T04:39:14;99105.64;;;10.69;85.03
58785;BME280;44557;51.862;19.378;2022-09-12T04:40:17;99111.34;;;10.65;84.80
58785;BME280;44557;51.862;19.378;2022-09-12T04:41:27;99114.27;;;10.65;85.07
58785;BME280;44557;51.862;19.378;2022-09-12T04:42:30;99116.37;;;10.67;85.17
58785;BME280;44557;51.862;19.378;2022-09-12T04:43:31;99109.41;;;10.69;85.38
58785;BME280;44557;51.862;19.378;2022-09-12T04:44:33;99110.77;;;10.70;84.97
58785;BME280;44557;51.862;19.378;2022-09-12T04:45:35;99108.04;;;10.68;84.80
58785;BME280;44557;51.862;19.378;2022-09-12T04:46:39;99111.30;;;10.69;84.82
58785;BME280;44557;51.862;19.378;2022-09-12T04:47:41;99116.27;;;10.72;85.09
58785;BME280;44557;51.862;19.378;2022-09-12T04:48:43;99114.13;;;10.71;85.02
58785;BME280;44557;51.862;19.378;2022-09-12T04:49:44;99113.85;;;10.76;84.63
58785;BME280;44557;51.862;19.378;2022-09-12T04:50:46;99120.95;;;10.71;84.81
58785;BME280;44557;51.862;19.378;2022-09-12T04:51:48;99114.27;;;10.76;84.65
58785;BME280;44557;51.862;19.378;2022-09-12T04:52:51;99111.47;;;10.78;84.79
58785;BME280;44557;51.862;19.378;2022-09-12T04:53:59;99113.55;;;10.71;84.74
58785;BME280;44557;51.862;19.378;2022-09-12T04:55:00;99116.98;;;10.75;84.61
58785;BME280;44557;51.862;19.378;2022-09-12T04:56:07;99116.75;;;10.78;84.94
58785;BME280;44557;51.862;19.378;2022-09-12T04:57:09;99116.98;;;10.75;84.66
58785;BME280;44557;51.862;19.378;2022-09-12T04:58:11;99118.26;;;10.76;84.69
58785;BME280;44557;51.862;19.378;2022-09-12T04:59:13;99118.54;;;10.75;84.72
58785;BME280;44557;51.862;19.378;2022-09-12T05:00:16;99121.61;;;10.78;84.64
58785;BME280;44557;51.862;19.378;2022-09-12T05:01:20;99117.23;;;10.79;84.40
58785;BME280;44557;51.862;19.378;2022-09-12T05:02:22;99122.11;;;10.73;84.56
58785;BME280;44557;51.862;19.378;2022-09-12T05:03:23;99124.42;;;10.74;84.71
58785;BME280;44557;51.862;19.378;2022-09-12T05:04:25;99123.30;;;10.82;84.55
58785;BME280;44557;51.862;19.378;2022-09-12T05:05:26;99123.66;;;10.86;84.57
58785;BME280;44557;51.862;19.378;2022-09-12T05:06:30;99121.19;;;10.88;84.70
58785;BME280;44557;51.862;19.378;2022-09-12T05:07:33;99124.13;;;10.87;84.57
58785;BME280;44557;51.862;19.378;2022-09-12T05:08:34;99125.92;;;10.92;84.14
58785;BME280;44557;51.862;19.378;2022-09-12T05:09:36;99119.63;;;10.95;83.92
58785;BME280;44557;51.862;19.378;2022-09-12T05:10:37;99125.92;;;11.04;83.64
58785;BME280;44557;51.862;19.378;2022-09-12T05:11:40;99123.59;;;11.05;83.67
58785;BME280;44557;51.862;19.378;2022-09-12T05:12:43;99124.11;;;11.13;83.45
58785;BME280;44557;51.862;19.378;2022-09-12T05:13:45;99125.67;;;11.51;82.17
58785;BME280;44557;51.862;19.378;2022-09-12T05:14:47;99124.10;;;11.64;81.14
58785;BME280;44557;51.862;19.378;2022-09-12T05:15:59;99127.58;;;11.80;80.83
58785;BME280;44557;51.862;19.378;2022-09-12T05:17:02;99129.26;;;11.82;80.51
58785;BME280;44557;51.862;19.378;2022-09-12T05:18:04;99124.17;;;11.73;80.37
58785;BME280;44557;51.862;19.378;2022-09-12T05:19:06;99127.39;;;11.80;80.17
58785;BME280;44557;51.862;19.378;2022-09-12T05:20:08;99126.02;;;11.65;80.60
58785;BME280;44557;51.862;19.378;2022-09-12T05:21:16;99121.55;;;11.64;80.80
58785;BME280;44557;51.862;19.378;2022-09-12T05:22:18;99122.52;;;11.61;81.00
58785;BME280;44557;51.862;19.378;2022-09-12T05:23:20;99118.01;;;11.53;81.07
58785;BME280;44557;51.862;19.378;2022-09-12T05:24:22;99123.54;;;11.64;80.85
58785;BME280;44557;51.862;19.378;2022-09-12T05:25:24;99125.54;;;11.80;80.22
58785;BME280;44557;51.862;19.378;2022-09-12T05:26:26;99122.66;;;11.83;80.08
58785;BME280;44557;51.862;19.378;2022-09-12T05:27:28;99119.79;;;11.99;79.55
58785;BME280;44557;51.862;19.378;2022-09-12T05:28:35;99123.33;;;12.33;78.53
58785;BME280;44557;51.862;19.378;2022-09-12T05:29:38;99121.38;;;12.73;76.71
58785;BME280;44557;51.862;19.378;2022-09-12T05:30:39;99120.95;;;12.55;76.95
58785;BME280;44557;51.862;19.378;2022-09-12T05:31:41;99118.08;;;12.22;77.72
58785;BME280;44557;51.862;19.378;2022-09-12T05:32:45;99120.77;;;12.20;78.30
58785;BME280;44557;51.862;19.378;2022-09-12T05:33:48;99128.14;;;12.10;78.61
58785;BME280;44557;51.862;19.378;2022-09-12T05:34:50;99127.83;;;12.21;78.49
58785;BME280;44557;51.862;19.378;2022-09-12T05:35:52;99128.92;;;12.09;78.91
58785;BME280;44557;51.862;19.378;2022-09-12T05:36:53;99125.38;;;12.40;77.97
58785;BME280;44557;51.862;19.378;2022-09-12T05:37:55;99126.60;;;12.95;75.68
58785;BME280;44557;51.862;19.378;2022-09-12T05:39:00;99124.52;;;12.88;75.77
58785;BME280;44557;51.862;19.378;2022-09-12T05:40:02;99126.41;;;12.94;75.23
58785;BME280;44557;51.862;19.378;2022-09-12T05:41:11;99132.91;;;12.99;75.17
58785;BME280;44557;51.862;19.378;2022-09-12T05:42:13;99133.89;;;13.41;74.21
58785;BME280;44557;51.862;19.378;2022-09-12T05:43:15;99134.71;;;13.83;72.57
58785;BME280;44557;51.862;19.378;2022-09-12T05:44:17;99136.39;;;13.68;72.63
58785;BME280;44557;51.862;19.378;2022-09-12T05:45:19;99134.11;;;13.74;72.47
58785;BME280;44557;51.862;19.378;2022-09-12T05:46:23;99133.10;;;13.50;73.13
58785;BME280;44557;51.862;19.378;2022-09-12T05:47:26;99135.02;;;13.31;73.88
58785;BME280;44557;51.862;19.378;2022-09-12T05:48:27;99136.30;;;13.42;73.53
58785;BME280;44557;51.862;19.378;2022-09-12T05:49:29;99135.05;;;13.38;73.62
58785;BME280;44557;51.862;19.378;2022-09-12T05:50:31;99134.05;;;13.31;73.74
58785;BME280;44557;51.862;19.378;2022-09-12T05:51:35;99131.63;;;13.06;74.73
58785;BME280;44557;51.862;19.378;2022-09-12T05:52:38;99133.88;;;12.91;75.42
58785;BME280;44557;51.862;19.378;2022-09-12T05:53:40;99132.04;;;12.85;75.55
58785;BME280;44557;51.862;19.378;2022-09-12T05:54:41;99133.87;;;12.86;75.69
58785;BME280;44557;51.862;19.378;2022-09-12T05:55:45;99133.56;;;12.70;76.10
58785;BME280;44557;51.862;19.378;2022-09-12T05:56:48;99136.58;;;12.63;76.57
58785;BME280;44557;51.862;19.378;2022-09-12T05:57:49;99134.64;;;12.60;76.73
58785;BME280;44557;51.862;19.378;2022-09-12T05:58:56;99133.23;;;12.62;77.08
58785;BME280;44557;51.862;19.378;2022-09-12T05:59:59;99137.30;;;12.56;77.03
58785;BME280;44557;51.862;19.378;2022-09-12T06:01:09;99134.13;;;12.47;77.30
58785;BME280;44557;51.862;19.378;2022-09-12T06:02:12;99136.50;;;12.47;77.42
58785;BME280;44557;51.862;19.378;2022-09-12T06:03:14;99134.89;;;12.37;77.64
58785;BME280;44557;51.862;19.378;2022-09-12T06:04:15;99141.13;;;12.38;77.87
58785;BME280;44557;51.862;19.378;2022-09-12T06:05:17;99138.67;;;12.37;77.83
58785;BME280;44557;51.862;19.378;2022-09-12T06:06:21;99139.31;;;12.42;77.95
58785;BME280;44557;51.862;19.378;2022-09-12T06:07:23;99136.69;;;12.41;77.66
58785;BME280;44557;51.862;19.378;2022-09-12T06:08:25;99142.35;;;12.48;77.72
58785;BME280;44557;51.862;19.378;2022-09-12T06:09:26;99145.35;;;12.51;77.56
58785;BME280;44557;51.862;19.378;2022-09-12T06:10:28;99138.84;;;12.53;77.45
58785;BME280;44557;51.862;19.378;2022-09-12T06:11:32;99142.20;;;12.63;77.31
58785;BME280;44557;51.862;19.378;2022-09-12T06:12:33;99142.82;;;12.79;76.90
58785;BME280;44557;51.862;19.378;2022-09-12T06:13:36;99140.23;;;12.97;75.99
58785;BME280;44557;51.862;19.378;2022-09-12T06:14:39;99140.91;;;13.30;74.97
58785;BME280;44557;51.862;19.378;2022-09-12T06:15:40;99133.53;;;13.24;74.87
58785;BME280;44557;51.862;19.378;2022-09-12T06:16:42;99141.96;;;13.13;75.18